Cote D IVoirian Star — A8SL4 — position and weather

sailwx.info

Track history (hours):
 
Tides and Currents Weather Stations Pressure Air Temp Water Temp Dewpoint Dewpoint Depression Visibility Wind Speed Wind Dir Waves Ship Positions

Cote D IVoirian Star

Last reported at 2017-Feb-19 22:33 UTC. Time now 2017-Feb-19 23:29 UTC.
Position N 05°19' W 004°01'.

Length 185 m; draft 8 m.

Type: Cargo ship. MMSI: 636014241.

Date/timePositionNaut miles runAvg speedWind from/ knotsBaromVisibWave heightAir tempDewpointWater temp
2017-Feb-19 22:33N 05°19' W 004°01'0 0.0
2017-Feb-19 21:32N 05°19' W 004°01'0 0.0
2017-Feb-19 20:23N 05°19' W 004°01'0 0.0
2017-Feb-19 19:29N 05°19' W 004°01'0 0.0
2017-Feb-19 18:33N 05°19' W 004°01'0 0.0
2017-Feb-19 17:29N 05°19' W 004°01'0 0.0
2017-Feb-19 16:32N 05°19' W 004°01'0 0.0
2017-Feb-19 15:19N 05°19' W 004°01'0 0.0
2017-Feb-19 14:19N 05°19' W 004°01'0 0.0
2017-Feb-19 13:15N 05°19' W 004°01'0 0.0
2017-Feb-19 12:24N 05°19' W 004°01'0 0.0
2017-Feb-19 11:31N 05°19' W 004°01'0 0.0
2017-Feb-19 10:22N 05°19' W 004°01'0 0.0
2017-Feb-19 09:25N 05°19' W 004°01'0 0.0
2017-Feb-19 08:26N 05°19' W 004°01'5 4.6
2017-Feb-19 07:20N 05°14' W 003°59'1 1.3
2017-Feb-19 06:20N 05°13' W 003°59'  
2017-Feb-16 04:18N 15°40' W 017°41'72517.2
2017-Feb-14 10:06N 27°42' W 016°24'4316.8
2017-Feb-14 07:33N 28°20' W 016°02'1717.0
2017-Feb-14 06:33N 28°33' W 015°49'1716.8
2017-Feb-14 05:33N 28°48' W 015°41'1716.9
2017-Feb-14 04:33N 29°04' W 015°36'1817.1
2017-Feb-14 03:28N 29°22' W 015°30'  
2017-Feb-10 20:04N 49°39' W 003°48'916.6
2017-Feb-10 19:32N 49°44' W 003°36'1515.6
2017-Feb-10 18:34N 49°52' W 003°17'1515.4
2017-Feb-10 17:34N 49°60' W 002°56'3717.3
2017-Feb-10 15:26N 50°09' W 002°01'1820.0
2017-Feb-10 14:33N 50°15' W 001°35'2220.6
2017-Feb-10 13:28N 50°21' W 001°01'1919.9
2017-Feb-10 12:32N 50°27' W 000°34'1818.4
2017-Feb-10 11:34N 50°30' W 000°06'1717.1
2017-Feb-10 10:33N 50°35' E 000°20'1616.3
2017-Feb-10 09:34N 50°42' E 000°44'1716.4
2017-Feb-10 08:32N 50°51' E 001°06'1818.2
2017-Feb-10 07:33N 51°03' E 001°26'2020.0
2017-Feb-10 06:34N 51°18' E 001°48'1515.3
2017-Feb-10 05:33N 51°22' E 002°12'1717.1
2017-Feb-10 04:34N 51°23' E 002°39'1514.6
2017-Feb-10 03:34N 51°25' E 003°02'1616.0
2017-Feb-10 02:34N 51°25' E 003°28'1110.7
2017-Feb-10 01:33N 51°22' E 003°44'18 9.0
2017-Feb-09 23:32N 51°22' E 004°13'  
Track history (hours):
 
Tides and Currents Weather Stations Pressure Air Temp Water Temp Dewpoint Dewpoint Depression Visibility Wind Speed Wind Dir Waves Ship Positions

Cote D IVoirian Star

Last reported at 2017-Feb-19 22:33 UTC. Time now 2017-Feb-19 23:29 UTC.
Position N 05°19' W 004°01'.

Length 185 m; draft 8 m.

Type: Cargo ship. MMSI: 636014241.

Date/timePositionNaut miles runAvg speedWind from/ knotsBaromVisibWave heightAir tempDewpointWater temp
2017-Feb-19 22:33N 05°19' W 004°01'0 0.0
2017-Feb-19 21:32N 05°19' W 004°01'0 0.0
2017-Feb-19 20:23N 05°19' W 004°01'0 0.0
2017-Feb-19 19:29N 05°19' W 004°01'0 0.0
2017-Feb-19 18:33N 05°19' W 004°01'0 0.0
2017-Feb-19 17:29N 05°19' W 004°01'0 0.0
2017-Feb-19 16:32N 05°19' W 004°01'0 0.0
2017-Feb-19 15:19N 05°19' W 004°01'0 0.0
2017-Feb-19 14:19N 05°19' W 004°01'0 0.0
2017-Feb-19 13:15N 05°19' W 004°01'0 0.0
2017-Feb-19 12:24N 05°19' W 004°01'0 0.0
2017-Feb-19 11:31N 05°19' W 004°01'0 0.0
2017-Feb-19 10:22N 05°19' W 004°01'0 0.0
2017-Feb-19 09:25N 05°19' W 004°01'0 0.0
2017-Feb-19 08:26N 05°19' W 004°01'5 4.6
2017-Feb-19 07:20N 05°14' W 003°59'1 1.3
2017-Feb-19 06:20N 05°13' W 003°59'  
2017-Feb-16 04:18N 15°40' W 017°41'72517.2
2017-Feb-14 10:06N 27°42' W 016°24'4316.8
2017-Feb-14 07:33N 28°20' W 016°02'1717.0
2017-Feb-14 06:33N 28°33' W 015°49'1716.8
2017-Feb-14 05:33N 28°48' W 015°41'1716.9
2017-Feb-14 04:33N 29°04' W 015°36'1817.1
2017-Feb-14 03:28N 29°22' W 015°30'  
2017-Feb-10 20:04N 49°39' W 003°48'916.6
2017-Feb-10 19:32N 49°44' W 003°36'1515.6
2017-Feb-10 18:34N 49°52' W 003°17'1515.4
2017-Feb-10 17:34N 49°60' W 002°56'3717.3
2017-Feb-10 15:26N 50°09' W 002°01'1820.0
2017-Feb-10 14:33N 50°15' W 001°35'2220.6
2017-Feb-10 13:28N 50°21' W 001°01'1919.9
2017-Feb-10 12:32N 50°27' W 000°34'1818.4
2017-Feb-10 11:34N 50°30' W 000°06'1717.1
2017-Feb-10 10:33N 50°35' E 000°20'1616.3
2017-Feb-10 09:34N 50°42' E 000°44'1716.4
2017-Feb-10 08:32N 50°51' E 001°06'1818.2
2017-Feb-10 07:33N 51°03' E 001°26'2020.0
2017-Feb-10 06:34N 51°18' E 001°48'1515.3
2017-Feb-10 05:33N 51°22' E 002°12'1717.1
2017-Feb-10 04:34N 51°23' E 002°39'1514.6
2017-Feb-10 03:34N 51°25' E 003°02'1616.0
2017-Feb-10 02:34N 51°25' E 003°28'1110.7
2017-Feb-10 01:33N 51°22' E 003°44'18 9.0
2017-Feb-09 23:32N 51°22' E 004°13'  

Dump ship's entire track history